Time;durP1;ratioP1;P1;durP2;ratioP2;P2;SDS_P1;SDS_P2;PMS_P1;PMS_P2;Temp;Humidity;BMP_temperature;BMP_pressure;BME280_temperature;BME280_humidity;BME280_pressure;Samples;Min_cycle;Max_cycle;Signal;HPM_P1;HPM_P2
2021/12/07 00:00:52;;;;;;;;;;;;;;;-0.77;100.00;98486.58;1653189;86;20229;-70
2021/12/07 00:03:20;;;;;;;;;;;;;;;-0.76;100.00;98476.33;1653767;85;20230;-70
2021/12/07 00:05:48;;;;;;;;;;;;;;;-0.75;100.00;98481.92;1654483;86;22398;-71
2021/12/07 00:08:15;;;;;;;;;;;;;;;-0.74;100.00;98495.38;1653773;85;20205;-70
2021/12/07 00:10:42;;;;;;;;;;;;;;;-0.77;100.00;98496.61;1653763;85;20104;-70
2021/12/07 00:13:12;;;;;;;;;;;;;;;-0.77;100.00;98499.76;1653658;86;20150;-70
2021/12/07 00:15:39;;;;;;;;;;;;;;;-0.74;100.00;98500.14;1654511;86;20206;-71
2021/12/07 00:18:05;;;;;;;;;;;;;;;-0.74;100.00;98499.34;1654090;85;22451;-70
2021/12/07 00:20:32;;;;;;;;;;;;;;;-0.77;100.00;98505.83;1683734;85;20120;-70
2021/12/07 00:23:03;;;;;;;;;;;;;;;-0.77;100.00;98506.34;1682095;85;20180;-70
2021/12/07 00:25:31;;;;;;;;;;;;;;;-0.75;100.00;98516.17;1696547;83;20097;-71
2021/12/07 00:27:58;;;;;;;;;;;;;;;-0.76;100.00;98514.05;1701612;83;20598;-71
2021/12/07 00:30:29;;;;;;;;;;;;;;;-0.78;100.00;98525.81;1702025;83;21167;-71
2021/12/07 00:33:08;;;;;;;;;;;;;;;-0.76;100.00;98533.81;1685626;85;20139;-71
2021/12/07 00:35:43;;;;;;;;;;;;;;;-0.73;100.00;98548.41;1684237;85;20242;-71
2021/12/07 00:37:53;;;;;;;;;;;;;;;-0.72;100.00;98532.88;1676714;85;20119;-70
2021/12/07 00:40:19;;;;;;;;;;;;;;;-0.72;100.00;98533.69;1684749;85;20143;-70
2021/12/07 00:42:47;;;;;;;;;;;;;;;-0.74;100.00;98537.03;1686829;85;21168;-70
2021/12/07 00:45:18;;;;;;;;;;;;;;;-0.74;100.00;98550.72;1683801;85;20634;-70
2021/12/07 00:47:45;;;;;;;;;;;;;;;-0.73;100.00;98558.95;1688611;84;20226;-70
2021/12/07 00:50:16;;;;;;;;;;;;;;;-0.72;100.00;98549.50;1683709;85;20494;-70
2021/12/07 00:52:43;;;;;;;;;;;;;;;-0.72;100.00;98527.09;1706024;83;20090;-70
2021/12/07 00:55:16;;;;;;;;;;;;;;;-0.70;100.00;98519.00;1723167;82;22315;-70
2021/12/07 00:57:43;;;;;;;;;;;;;;;-0.70;100.00;98519.80;1717803;82;20101;-71
2021/12/07 01:00:15;;;;;;;;;;;;;;;-0.70;100.00;98518.48;1705089;83;20161;-70
2021/12/07 01:02:42;;;;;;;;;;;;;;;-0.73;100.00;98522.86;1683813;85;20152;-71
2021/12/07 01:05:16;;;;;;;;;;;;;;;-0.75;100.00;98536.74;1686481;84;20465;-70
2021/12/07 01:26:40;;;;;;;;;;;;;;;-0.78;100.00;98535.84;1687265;84;20172;-70
2021/12/07 01:29:07;;;;;;;;;;;;;;;-0.77;100.00;98539.28;1701822;83;20193;-70
2021/12/07 01:57:48;;;;;;;;;;;;;;;-0.83;100.00;98507.98;1701804;83;20136;-69
2021/12/07 02:01:09;;;;;;;;;;;;;;;-0.84;100.00;98510.30;1683229;85;20784;-69
2021/12/07 02:03:38;;;;;;;;;;;;;;;-0.83;100.00;98504.03;1685227;85;20618;-69
2021/12/07 02:06:07;;;;;;;;;;;;;;;-0.80;100.00;98497.03;1683663;85;20127;-70
2021/12/07 02:08:34;;;;;;;;;;;;;;;-0.78;100.00;98499.47;1701219;83;20090;-69
2021/12/07 02:11:03;;;;;;;;;;;;;;;-0.75;100.00;98506.95;1701188;83;20150;-69
2021/12/07 02:16:00;;;;;;;;;;;;;;;-0.77;100.00;98495.29;1701164;83;20215;-69
2021/12/07 02:18:28;;;;;;;;;;;;;;;-0.78;100.00;98496.31;1701750;83;20085;-69
2021/12/07 02:20:58;;;;;;;;;;;;;;;-0.78;100.00;98508.17;1683660;84;20172;-69
2021/12/07 02:23:25;;;;;;;;;;;;;;;-0.78;100.00;98512.13;1652636;85;20154;-69
2021/12/07 02:25:52;;;;;;;;;;;;;;;-0.78;100.00;98516.08;1635503;87;21086;-69
2021/12/07 02:28:21;;;;;;;;;;;;;;;-0.78;100.00;98516.59;1631553;87;20477;-69
2021/12/07 02:30:47;;;;;;;;;;;;;;;-0.80;100.00;98515.47;1653947;86;20425;-69
2021/12/07 02:33:14;;;;;;;;;;;;;;;-0.81;100.00;98509.88;1654383;86;20138;-70
2021/12/07 02:35:41;;;;;;;;;;;;;;;-0.82;100.00;98516.69;1658072;86;20507;-70
2021/12/07 02:38:08;;;;;;;;;;;;;;;-0.84;100.00;98507.66;1659377;86;21172;-70
2021/12/07 02:40:36;;;;;;;;;;;;;;;-0.84;100.00;98508.98;1658871;86;20155;-69
2021/12/07 02:43:04;;;;;;;;;;;;;;;-0.85;100.00;98527.14;1657467;86;20213;-69
2021/12/07 02:45:31;;;;;;;;;;;;;;;-0.82;100.00;98533.30;1658557;86;20165;-69
2021/12/07 02:47:58;;;;;;;;;;;;;;;-0.79;100.00;98531.57;1658741;86;20197;-69
2021/12/07 02:50:25;;;;;;;;;;;;;;;-0.78;100.00;98528.45;1658863;86;21225;-70
2021/12/07 02:52:55;;;;;;;;;;;;;;;-0.80;100.00;98524.69;1658622;86;20432;-69
2021/12/07 02:55:21;;;;;;;;;;;;;;;-0.80;100.00;98531.80;1658668;86;20089;-69
2021/12/07 02:57:49;;;;;;;;;;;;;;;-0.78;100.00;98533.72;1653983;86;20844;-69
2021/12/07 03:00:22;;;;;;;;;;;;;;;-0.81;100.00;98532.28;1653489;86;20126;-69
2021/12/07 03:02:55;;;;;;;;;;;;;;;-0.85;100.00;98528.97;1652864;86;21168;-70
2021/12/07 03:27:08;;;;;;;;;;;;;;;-0.93;100.00;98526.84;1740856;81;20114;-70
2021/12/07 03:29:37;;;;;;;;;;;;;;;-0.94;100.00;98515.19;1736947;81;21215;-70
2021/12/07 03:32:04;;;;;;;;;;;;;;;-0.96;100.00;98519.84;1739946;81;20087;-69
2021/12/07 03:34:33;;;;;;;;;;;;;;;-0.99;100.00;98514.98;1740445;81;20082;-70
2021/12/07 03:37:00;;;;;;;;;;;;;;;-1.02;100.00;98525.94;1743162;80;20133;-70
2021/12/07 03:39:27;;;;;;;;;;;;;;;-1.02;100.00;98522.80;1744405;81;20118;-70
2021/12/07 03:41:54;;;;;;;;;;;;;;;-1.04;100.00;98516.91;1744219;81;21159;-70
2021/12/07 03:44:21;;;;;;;;;;;;;;;-1.03;100.00;98518.52;1736002;82;20409;-70
2021/12/07 03:46:48;;;;;;;;;;;;;;;-1.03;100.00;98533.52;1745205;81;20107;-70
2021/12/07 03:49:15;;;;;;;;;;;;;;;-1.01;100.00;98532.81;1739980;81;20467;-69
2021/12/07 03:51:41;;;;;;;;;;;;;;;-1.02;100.00;98532.53;1743197;81;20146;-69
2021/12/07 03:54:08;;;;;;;;;;;;;;;-1.04;100.00;98535.35;1742463;81;21054;-69
2021/12/07 03:56:35;;;;;;;;;;;;;;;-1.03;100.00;98560.66;1739852;82;20111;-71
2021/12/07 03:59:02;;;;;;;;;;;;;;;-1.00;100.00;98575.28;1738105;81;20147;-70
2021/12/07 04:01:30;;;;;;;;;;;;;;;-0.98;100.00;98578.02;1741613;81;20455;-69
2021/12/07 04:03:57;;;;;;;;;;;;;;;-0.97;100.00;98578.82;1737917;82;20218;-70
2021/12/07 04:06:24;;;;;;;;;;;;;;;-0.99;100.00;98579.02;1740130;80;21124;-70
2021/12/07 04:08:50;;;;;;;;;;;;;;;-0.98;100.00;98592.98;1733982;82;20487;-70
2021/12/07 04:11:18;;;;;;;;;;;;;;;-0.98;100.00;98594.30;1731882;82;20186;-70
2021/12/07 04:13:45;;;;;;;;;;;;;;;-0.96;100.00;98592.28;1734125;82;20210;-70
2021/12/07 04:16:13;;;;;;;;;;;;;;;-0.98;100.00;98600.89;1733211;80;20145;-69
2021/12/07 04:18:41;;;;;;;;;;;;;;;-0.99;100.00;98607.19;1735217;82;21145;-70
2021/12/07 04:21:08;;;;;;;;;;;;;;;-1.01;100.00;98609.20;1735421;82;20134;-70
2021/12/07 04:23:35;;;;;;;;;;;;;;;-0.98;100.00;98612.74;1735694;82;20071;-69
2021/12/07 04:26:08;;;;;;;;;;;;;;;-0.94;100.00;98613.97;1735083;82;20091;-69
2021/12/07 04:28:35;;;;;;;;;;;;;;;-0.94;100.00;98608.70;1729636;82;20115;-69
2021/12/07 04:31:02;;;;;;;;;;;;;;;-0.97;100.00;98604.65;1732486;81;21102;-70
2021/12/07 04:33:30;;;;;;;;;;;;;;;-0.97;100.00;98613.87;1733470;82;20162;-69
2021/12/07 04:35:58;;;;;;;;;;;;;;;-0.96;100.00;98612.04;1732472;82;20115;-69
2021/12/07 04:38:25;;;;;;;;;;;;;;;-0.95;100.00;98615.00;1733191;82;20701;-69
2021/12/07 04:40:51;;;;;;;;;;;;;;;-0.92;100.00;98611.95;1731925;82;20091;-70
2021/12/07 04:43:18;;;;;;;;;;;;;;;-0.95;100.00;98599.19;1727694;82;22004;-70
2021/12/07 04:59:11;;;;;;;;;;;;;;;-0.95;100.00;98618.95;1734500;82;20183;-69
2021/12/07 05:01:37;;;;;;;;;;;;;;;-0.96;100.00;98621.26;1734700;82;20140;-69
2021/12/07 05:04:11;;;;;;;;;;;;;;;-0.99;100.00;98613.25;1722986;82;20087;-69
2021/12/07 05:06:34;;;;;;;;;;;;;;;-0.98;100.00;98608.80;1730130;81;20135;-69
2021/12/07 05:09:30;;;;;;;;;;;;;;;-0.97;100.00;98619.65;1738481;81;21963;-69
2021/12/07 05:11:52;;;;;;;;;;;;;;;-0.98;100.00;98616.69;1737286;80;20174;-69
2021/12/07 05:14:20;;;;;;;;;;;;;;;-0.99;100.00;98609.81;1735775;82;20158;-69
2021/12/07 05:17:02;;;;;;;;;;;;;;;-0.98;100.00;98602.20;1728501;82;20156;-69
2021/12/07 05:38:24;;;;;;;;;;;;;;;-1.00;100.00;98626.14;1727995;81;20128;-68
2021/12/07 05:40:50;;;;;;;;;;;;;;;-1.01;100.00;98624.50;1747163;81;20209;-68
2021/12/07 05:43:17;;;;;;;;;;;;;;;-0.99;100.00;98630.89;1734555;82;20146;-68
2021/12/07 05:45:44;;;;;;;;;;;;;;;-0.98;100.00;98628.55;1730250;82;20167;-68
2021/12/07 05:48:11;;;;;;;;;;;;;;;-0.98;100.00;98631.19;1735403;80;21177;-68
2021/12/07 05:50:41;;;;;;;;;;;;;;;-0.96;100.00;98634.43;1729803;80;20420;-69
2021/12/07 05:53:09;;;;;;;;;;;;;;;-0.94;100.00;98635.05;1763050;80;20553;-68
2021/12/07 05:55:37;;;;;;;;;;;;;;;-0.94;100.00;98637.16;1739184;82;20134;-68
2021/12/07 05:58:04;;;;;;;;;;;;;;;-0.94;100.00;98646.39;1730048;81;20170;-69
2021/12/07 06:00:32;;;;;;;;;;;;;;;-0.94;100.00;98649.02;1733592;82;21155;-68
2021/12/07 06:03:04;;;;;;;;;;;;;;;-0.95;100.00;98645.29;1740591;82;20118;-68
2021/12/07 06:05:33;;;;;;;;;;;;;;;-0.92;100.00;98642.25;1733008;82;20210;-67
2021/12/07 06:07:59;;;;;;;;;;;;;;;-0.94;100.00;98638.48;1739729;81;20425;-68
2021/12/07 06:10:26;;;;;;;;;;;;;;;-0.92;100.00;98637.78;1750702;81;20473;-69
2021/12/07 06:12:55;;;;;;;;;;;;;;;-0.92;100.00;98634.34;1739562;81;21917;-69
2021/12/07 06:15:24;;;;;;;;;;;;;;;-0.90;100.00;98637.59;1750087;81;20161;-68
2021/12/07 06:17:52;;;;;;;;;;;;;;;-0.93;100.00;98634.02;1754727;81;20098;-70
2021/12/07 06:20:18;;;;;;;;;;;;;;;-0.94;100.00;98640.31;1754832;81;20698;-70
2021/12/07 06:22:48;;;;;;;;;;;;;;;-0.93;100.00;98645.88;1817570;78;20082;-70
2021/12/07 06:25:15;;;;;;;;;;;;;;;-0.93;100.00;98642.76;1809333;79;21222;-67
2021/12/07 06:27:42;;;;;;;;;;;;;;;-0.91;100.00;98636.78;1820882;78;20074;-69
2021/12/07 06:30:11;;;;;;;;;;;;;;;-0.89;100.00;98641.32;1797555;79;20105;-68
2021/12/07 06:32:40;;;;;;;;;;;;;;;-0.88;100.00;98649.55;1728764;80;20174;-68
2021/12/07 06:35:08;;;;;;;;;;;;;;;-0.87;100.00;98654.30;1814583;78;20454;-68
2021/12/07 06:37:37;;;;;;;;;;;;;;;-0.89;100.00;98637.37;1819865;79;21152;-69
2021/12/07 06:40:10;;;;;;;;;;;;;;;-0.90;100.00;98633.12;1816796;78;20098;-69
2021/12/07 06:42:38;;;;;;;;;;;;;;;-0.89;100.00;98639.20;1781526;79;20176;-70
2021/12/07 06:45:07;;;;;;;;;;;;;;;-0.88;100.00;98631.62;1802510;79;20172;-67
2021/12/07 06:47:35;;;;;;;;;;;;;;;-0.84;100.00;98619.64;1816089;78;20161;-67
2021/12/07 06:50:04;;;;;;;;;;;;;;;-0.81;100.00;98627.13;1803419;78;21803;-69
2021/12/07 06:52:32;;;;;;;;;;;;;;;-0.79;100.00;98630.38;1781972;79;20169;-70
2021/12/07 06:54:58;;;;;;;;;;;;;;;-0.80;100.00;98627.45;1749730;82;20222;-70
2021/12/07 06:57:26;;;;;;;;;;;;;;;-0.77;100.00;98630.19;1782449;80;20078;-69
2021/12/07 06:59:53;;;;;;;;;;;;;;;-0.76;100.00;98630.00;1780310;80;20110;-68
2021/12/07 07:02:20;;;;;;;;;;;;;;;-0.73;100.00;98630.09;1729217;83;21846;-68
2021/12/07 07:04:47;;;;;;;;;;;;;;;-0.71;100.00;98625.41;1775033;80;20094;-68
2021/12/07 07:07:13;;;;;;;;;;;;;;;-0.72;100.00;98631.19;1758818;80;20447;-69
2021/12/07 07:09:41;;;;;;;;;;;;;;;-0.70;100.00;98633.64;1747579;81;20129;-69
2021/12/07 07:12:08;;;;;;;;;;;;;;;-0.67;100.00;98627.95;1774032;80;20143;-70
2021/12/07 07:14:34;;;;;;;;;;;;;;;-0.67;100.00;98626.12;1778339;80;21175;-69
2021/12/07 07:17:01;;;;;;;;;;;;;;;-0.65;100.00;98641.74;1779055;80;20146;-69
2021/12/07 07:19:27;;;;;;;;;;;;;;;-0.66;100.00;98651.48;1778512;80;20449;-69
2021/12/07 07:21:53;;;;;;;;;;;;;;;-0.63;100.00;98661.31;1778218;80;20107;-69
2021/12/07 07:24:20;;;;;;;;;;;;;;;-0.62;100.00;98660.29;1778350;80;20488;-69
2021/12/07 07:26:47;;;;;;;;;;;;;;;-0.60;100.00;98649.84;1778619;80;21176;-69
2021/12/07 07:29:13;;;;;;;;;;;;;;;-0.57;100.00;98645.48;1778473;80;20139;-68
2021/12/07 07:31:41;;;;;;;;;;;;;;;-0.57;100.00;98657.34;1779351;80;20158;-69
2021/12/07 07:34:08;;;;;;;;;;;;;;;-0.56;100.00;98660.81;1778051;80;20143;-68
2021/12/07 07:36:34;;;;;;;;;;;;;;;-0.54;100.00;98664.03;1775193;80;20135;-68
2021/12/07 07:39:01;;;;;;;;;;;;;;;-0.54;100.00;98669.30;1724119;80;20532;-68
2021/12/07 07:41:27;;;;;;;;;;;;;;;-0.56;100.00;98671.36;1763094;80;20136;-68
2021/12/07 07:43:53;;;;;;;;;;;;;;;-0.59;100.00;98670.42;1761289;81;20445;-70
2021/12/07 07:46:20;;;;;;;;;;;;;;;-0.61;100.00;98655.31;1761020;81;20107;-70
2021/12/07 07:48:46;;;;;;;;;;;;;;;-0.59;100.00;98652.77;1755209;80;20103;-69
2021/12/07 07:51:13;;;;;;;;;;;;;;;-0.56;100.00;98660.81;1749513;80;21128;-69
2021/12/07 07:53:39;;;;;;;;;;;;;;;-0.58;100.00;98658.87;1747139;81;20201;-69
2021/12/07 07:56:06;;;;;;;;;;;;;;;-0.54;100.00;98666.66;1747432;81;20169;-69
2021/12/07 07:58:33;;;;;;;;;;;;;;;-0.54;100.00;98686.44;1747926;81;20161;-70
2021/12/07 08:00:59;;;;;;;;;;;;;;;-0.57;100.00;98697.39;1747492;82;20158;-68
2021/12/07 08:03:25;;;;;;;;;;;;;;;-0.56;100.00;98691.92;1747656;82;21195;-68
2021/12/07 08:05:52;;;;;;;;;;;;;;;-0.55;100.00;98690.09;1746819;81;20205;-69
2021/12/07 08:08:19;;;;;;;;;;;;;;;-0.58;100.00;98686.05;1775845;79;20129;-70
2021/12/07 08:10:46;;;;;;;;;;;;;;;-0.57;100.00;98691.61;1805627;79;20689;-69
2021/12/07 08:13:14;;;;;;;;;;;;;;;-0.58;100.00;98697.09;1806063;79;20431;-70
2021/12/07 08:15:43;;;;;;;;;;;;;;;-0.55;100.00;98700.13;1806075;79;20094;-69
2021/12/07 08:18:11;;;;;;;;;;;;;;;-0.54;100.00;98700.94;1806123;79;20145;-67
2021/12/07 08:20:38;;;;;;;;;;;;;;;-0.51;100.00;98705.83;1805527;79;20110;-69
2021/12/07 08:23:04;;;;;;;;;;;;;;;-0.53;100.00;98704.70;1805692;79;20705;-70
2021/12/07 08:25:41;;;;;;;;;;;;;;;-0.46;100.00;98710.78;1805489;79;20118;-68
2021/12/07 08:28:09;;;;;;;;;;;;;;;-0.42;100.00;98701.95;1806033;79;21131;-69
2021/12/07 08:30:36;;;;;;;;;;;;;;;-0.41;100.00;98705.42;1790561;78;20108;-69
2021/12/07 08:33:02;;;;;;;;;;;;;;;-0.37;100.00;98707.42;1753600;80;20181;-70
2021/12/07 08:35:28;;;;;;;;;;;;;;;-0.35;100.00;98719.89;1752709;81;20133;-68
2021/12/07 08:37:55;;;;;;;;;;;;;;;-0.36;100.00;98721.44;1753079;80;20450;-68
2021/12/07 08:40:24;;;;;;;;;;;;;;;-0.41;100.00;98717.28;1803235;78;21295;-69
2021/12/07 08:42:50;;;;;;;;;;;;;;;-0.43;100.00;98720.11;1806571;79;20109;-69
2021/12/07 08:45:17;;;;;;;;;;;;;;;-0.45;100.00;98724.26;1796854;79;20110;-69
2021/12/07 08:47:45;;;;;;;;;;;;;;;-0.47;100.00;98722.33;1798543;79;20612;-69
2021/12/07 08:50:15;;;;;;;;;;;;;;;-0.48;100.00;98727.30;1796483;79;20131;-71
2021/12/07 08:52:42;;;;;;;;;;;;;;;-0.53;100.00;98732.89;1794603;79;21110;-69
2021/12/07 09:00:33;;;;;;;;;;;;;;;-0.56;100.00;98747.28;1782746;79;20748;-71
2021/12/07 09:03:01;;;;;;;;;;;;;;;-0.56;100.00;98741.20;1776400;81;20480;-70
2021/12/07 09:05:28;;;;;;;;;;;;;;;-0.55;100.00;98739.67;1789413;79;21141;-70
2021/12/07 09:07:54;;;;;;;;;;;;;;;-0.53;100.00;98737.65;1782741;79;20128;-70
2021/12/07 09:10:20;;;;;;;;;;;;;;;-0.52;100.00;98731.86;1770240;81;20190;-70
2021/12/07 09:12:47;;;;;;;;;;;;;;;-0.55;100.00;98736.23;1770555;80;20458;-71
2021/12/07 09:15:14;;;;;;;;;;;;;;;-0.56;100.00;98727.52;1770375;81;20095;-70
2021/12/07 09:17:41;;;;;;;;;;;;;;;-0.56;100.00;98719.61;1785561;80;21779;-69
2021/12/07 09:20:11;;;;;;;;;;;;;;;-0.55;100.00;98717.77;1791258;80;20114;-69
2021/12/07 09:22:37;;;;;;;;;;;;;;;-0.55;100.00;98727.00;1791631;80;20083;-68
2021/12/07 09:25:05;;;;;;;;;;;;;;;-0.56;100.00;98726.20;1788455;79;20207;-68
2021/12/07 09:27:32;;;;;;;;;;;;;;;-0.56;100.00;98708.26;1792021;78;20119;-69
2021/12/07 09:29:58;;;;;;;;;;;;;;;-0.53;100.00;98703.89;1744508;82;22330;-69
2021/12/07 09:32:25;;;;;;;;;;;;;;;-0.53;100.00;98694.66;1768172;79;20531;-69
2021/12/07 09:34:51;;;;;;;;;;;;;;;-0.54;100.00;98693.02;1780777;79;20160;-69
2021/12/07 09:37:18;;;;;;;;;;;;;;;-0.52;100.00;98701.55;1782317;79;20135;-69
2021/12/07 09:39:44;;;;;;;;;;;;;;;-0.55;100.00;98701.45;1798054;79;20183;-69
2021/12/07 09:42:10;;;;;;;;;;;;;;;-0.56;100.00;98700.34;1798231;79;21132;-70
2021/12/07 09:44:37;;;;;;;;;;;;;;;-0.62;100.00;98700.63;1775656;80;20483;-69
2021/12/07 09:47:03;;;;;;;;;;;;;;;-0.62;100.00;98711.69;1798307;79;20079;-70
2021/12/07 09:49:30;;;;;;;;;;;;;;;-0.60;100.00;98699.13;1798002;79;20830;-70
2021/12/07 09:51:56;;;;;;;;;;;;;;;-0.62;100.00;98696.67;1798010;79;20237;-71
2021/12/07 09:54:23;;;;;;;;;;;;;;;-0.66;100.00;98698.11;1792520;80;21124;-70
2021/12/07 09:56:50;;;;;;;;;;;;;;;-0.69;100.00;98705.08;1766838;80;20144;-71
2021/12/07 09:59:17;;;;;;;;;;;;;;;-0.68;100.00;98698.30;1766213;81;20212;-70
2021/12/07 10:01:46;;;;;;;;;;;;;;;-0.66;100.00;98694.97;1766389;81;20093;-70
2021/12/07 10:04:14;;;;;;;;;;;;;;;-0.68;100.00;98690.91;1729722;83;20445;-70
2021/12/07 10:06:40;;;;;;;;;;;;;;;-0.70;100.00;98692.42;1729770;83;21760;-70
2021/12/07 10:09:07;;;;;;;;;;;;;;;-0.71;100.00;98700.52;1719297;83;20423;-69
2021/12/07 10:11:33;;;;;;;;;;;;;;;-0.72;100.00;98702.34;1719598;83;20214;-70
2021/12/07 10:14:01;;;;;;;;;;;;;;;-0.73;100.00;98702.56;1719238;83;20201;-70
2021/12/07 10:16:28;;;;;;;;;;;;;;;-0.71;100.00;98706.63;1719683;83;20109;-69
2021/12/07 10:18:55;;;;;;;;;;;;;;;-0.69;100.00;98702.45;1720016;83;21158;-69
2021/12/07 10:21:24;;;;;;;;;;;;;;;-0.71;100.00;98701.35;1719635;83;20419;-69
2021/12/07 10:24:00;;;;;;;;;;;;;;;-0.73;100.00;98697.30;1708261;83;20455;-70
2021/12/07 10:26:28;;;;;;;;;;;;;;;-0.77;100.00;98698.19;1742249;82;20084;-69
2021/12/07 10:29:12;;;;;;;;;;;;;;;-0.79;100.00;98700.20;1740017;82;20440;-70
2021/12/07 10:31:44;;;;;;;;;;;;;;;-0.81;100.00;98701.42;1739704;82;21170;-69
2021/12/07 10:34:14;;;;;;;;;;;;;;;-0.85;100.00;98704.98;1737759;82;20123;-69
2021/12/07 10:36:45;;;;;;;;;;;;;;;-0.88;100.00;98708.02;1717889;83;20137;-69
2021/12/07 10:39:23;;;;;;;;;;;;;;;-0.90;100.00;98706.09;1717973;83;20419;-69
2021/12/07 10:42:02;;;;;;;;;;;;;;;-0.89;100.00;98695.84;1717279;83;20126;-69
2021/12/07 10:44:31;;;;;;;;;;;;;;;-0.90;100.00;98700.82;1716943;83;21161;-70
2021/12/07 10:47:00;;;;;;;;;;;;;;;-0.95;100.00;98697.47;1717837;83;20194;-69
2021/12/07 10:49:46;;;;;;;;;;;;;;;-0.95;100.00;98705.37;1718275;83;20101;-70
2021/12/07 10:52:17;;;;;;;;;;;;;;;-0.95;100.00;98693.52;1724805;82;20111;-68
2021/12/07 10:54:50;;;;;;;;;;;;;;;-0.95;100.00;98693.52;1747934;81;20230;-69
2021/12/07 10:57:21;;;;;;;;;;;;;;;-0.94;100.00;98685.09;1748131;81;21861;-70
2021/12/07 10:59:56;;;;;;;;;;;;;;;-0.92;100.00;98690.47;1747835;82;20151;-70
2021/12/07 11:02:23;;;;;;;;;;;;;;;-0.91;100.00;98681.58;1748214;82;20138;-70
2021/12/07 11:04:49;;;;;;;;;;;;;;;-0.91;100.00;98682.89;1747785;81;20182;-69
2021/12/07 11:07:24;;;;;;;;;;;;;;;-0.93;100.00;98684.08;1748058;82;20220;-68
2021/12/07 11:12:49;;;;;;;;;;;;;;;-0.96;100.00;98676.06;1741526;82;20131;-69
2021/12/07 11:15:17;;;;;;;;;;;;;;;-0.96;100.00;98672.63;1739983;82;20160;-68
2021/12/07 11:17:41;;;;;;;;;;;;;;;-0.96;100.00;98673.43;1738420;82;20119;-69
2021/12/07 11:20:09;;;;;;;;;;;;;;;-0.95;100.00;98678.22;1738900;82;20182;-69
2021/12/07 11:22:39;;;;;;;;;;;;;;;-0.94;100.00;98674.56;1739134;82;21101;-68
2021/12/07 11:30:41;;;;;;;;;;;;;;;-0.95;100.00;98672.44;1695178;84;20186;-69
2021/12/07 11:33:08;;;;;;;;;;;;;;;-0.96;100.00;98662.89;1703591;83;20409;-68
2021/12/07 11:35:35;;;;;;;;;;;;;;;-0.96;100.00;98661.58;1705082;84;21128;-68
2021/12/07 11:38:04;;;;;;;;;;;;;;;-0.97;100.00;98661.28;1704722;84;20162;-68
2021/12/07 11:40:37;;;;;;;;;;;;;;;-0.97;100.00;98657.33;1705187;83;20487;-68
2021/12/07 11:43:17;;;;;;;;;;;;;;;-0.97;100.00;98653.89;1704630;84;20150;-68
2021/12/07 11:45:44;;;;;;;;;;;;;;;-1.00;100.00;98660.37;1705115;82;20174;-68
2021/12/07 11:48:11;;;;;;;;;;;;;;;-1.01;100.00;98663.20;1697611;82;21911;-67
2021/12/07 11:50:44;;;;;;;;;;;;;;;-1.02;100.00;98661.08;1683041;84;20175;-67
2021/12/07 11:53:16;;;;;;;;;;;;;;;-1.03;100.00;98658.13;1699503;83;20449;-67
2021/12/07 11:55:45;;;;;;;;;;;;;;;-1.02;100.00;98647.91;1700562;83;20102;-67
2021/12/07 11:58:13;;;;;;;;;;;;;;;-0.99;100.00;98651.96;1700397;84;20468;-67
2021/12/07 12:00:43;;;;;;;;;;;;;;;-0.99;100.00;98645.37;1676205;84;21827;-67
2021/12/07 12:03:15;;;;;;;;;;;;;;;-1.02;100.00;98642.64;1700288;84;20086;-67
2021/12/07 12:05:42;;;;;;;;;;;;;;;-1.00;100.00;98641.13;1738864;82;20144;-68
2021/12/07 12:08:10;;;;;;;;;;;;;;;-1.01;100.00;98642.93;1750259;80;20101;-67
2021/12/07 12:10:38;;;;;;;;;;;;;;;-1.02;100.00;98637.37;1750657;82;20120;-67
2021/12/07 12:13:17;;;;;;;;;;;;;;;-1.02;100.00;98636.05;1750269;82;21160;-67
2021/12/07 12:16:13;;;;;;;;;;;;;;;-1.01;100.00;98640.81;1750461;82;20108;-66
2021/12/07 12:18:55;;;;;;;;;;;;;;;-1.01;100.00;98640.30;1750487;81;20120;-68
2021/12/07 12:21:34;;;;;;;;;;;;;;;-1.06;100.00;98639.29;1750693;80;20085;-68
2021/12/07 12:24:21;;;;;;;;;;;;;;;-1.05;100.00;98648.80;1765010;79;20856;-66
2021/12/07 12:26:47;;;;;;;;;;;;;;;-1.07;100.00;98643.75;1766912;79;21831;-66
2021/12/07 12:29:20;;;;;;;;;;;;;;;-1.09;100.00;98649.20;1754873;80;20124;-67
2021/12/07 12:31:55;;;;;;;;;;;;;;;-1.07;100.00;98649.53;1760526;80;20166;-65
2021/12/07 12:34:25;;;;;;;;;;;;;;;-1.08;100.00;98661.86;1759407;81;20426;-68
2021/12/07 12:36:56;;;;;;;;;;;;;;;-1.09;100.00;98662.89;1764830;80;20425;-67
2021/12/07 12:39:54;;;;;;;;;;;;;;;-1.07;100.00;98669.28;1766075;79;21777;-66
2021/12/07 12:42:30;;;;;;;;;;;;;;;-1.08;100.00;98668.45;1776300;80;20209;-67
2021/12/07 12:45:22;;;;;;;;;;;;;;;-1.10;100.00;98667.86;1769072;80;20440;-68
2021/12/07 12:48:04;;;;;;;;;;;;;;;-1.10;100.00;98671.81;1760104;79;20146;-66
2021/12/07 12:50:44;;;;;;;;;;;;;;;-1.12;100.00;98674.64;1759695;80;20463;-68
2021/12/07 12:53:24;;;;;;;;;;;;;;;-1.15;100.00;98676.84;1767671;80;21134;-67
2021/12/07 12:55:52;;;;;;;;;;;;;;;-1.15;100.00;98688.21;1768683;80;20128;-69
2021/12/07 12:58:33;;;;;;;;;;;;;;;-1.17;100.00;98689.42;1773341;80;20188;-68
2021/12/07 13:01:29;;;;;;;;;;;;;;;-1.17;100.00;98688.11;1753252;80;21056;-67
2021/12/07 13:04:10;;;;;;;;;;;;;;;-1.18;100.00;98701.75;1765312;80;20220;-70
2021/12/07 13:06:44;;;;;;;;;;;;;;;-1.20;100.00;98695.90;1761496;80;21873;-70
2021/12/07 13:09:12;;;;;;;;;;;;;;;-1.20;100.00;98693.75;1765768;81;20180;-68
2021/12/07 13:11:42;;;;;;;;;;;;;;;-1.21;100.00;98694.77;1770577;81;20462;-69
2021/12/07 13:14:31;;;;;;;;;;;;;;;-1.22;100.00;98691.33;1749232;81;20134;-67
2021/12/07 13:17:21;;;;;;;;;;;;;;;-1.23;100.00;98697.59;1702448;84;20189;-68
2021/12/07 13:20:09;;;;;;;;;;;;;;;-1.25;100.00;98697.48;1702594;84;21094;-65
2021/12/07 13:23:02;;;;;;;;;;;;;;;-1.27;100.00;98687.64;1702153;83;20166;-67
2021/12/07 13:25:42;;;;;;;;;;;;;;;-1.29;100.00;98682.59;1717776;82;20127;-65
2021/12/07 13:28:15;;;;;;;;;;;;;;;-1.31;100.00;98690.69;1733879;82;20199;-66
2021/12/07 13:30:51;;;;;;;;;;;;;;;-1.33;100.00;98686.62;1692201;84;20456;-66
2021/12/07 13:33:20;;;;;;;;;;;;;;;-1.33;100.00;98686.11;1691597;84;21884;-67
2021/12/07 13:35:49;;;;;;;;;;;;;;;-1.33;100.00;98687.43;1691727;84;20135;-70
2021/12/07 13:38:21;;;;;;;;;;;;;;;-1.35;100.00;98682.06;1693556;82;20131;-71
2021/12/07 13:40:49;;;;;;;;;;;;;;;-1.35;100.00;98692.59;1709344;82;20182;-68
2021/12/07 13:43:37;;;;;;;;;;;;;;;-1.37;100.00;98695.92;1712422;82;20488;-69
2021/12/07 13:46:12;;;;;;;;;;;;;;;-1.36;100.00;98705.45;1714073;83;21067;-68
2021/12/07 13:48:39;;;;;;;;;;;;;;;-1.37;100.00;98701.19;1714114;83;20215;-70
2021/12/07 13:51:06;;;;;;;;;;;;;;;-1.37;100.00;98699.39;1714552;83;20157;-71
2021/12/07 13:53:37;;;;;;;;;;;;;;;-1.38;100.00;98700.89;1723561;80;20255;-71
2021/12/07 13:56:06;;;;;;;;;;;;;;;-1.40;100.00;98702.39;1766775;80;20524;-71
2021/12/07 13:58:54;;;;;;;;;;;;;;;-1.41;100.00;98701.30;1764943;80;21120;-72
2021/12/07 14:01:24;;;;;;;;;;;;;;;-1.41;100.00;98703.41;1767523;80;20207;-72
2021/12/07 14:03:51;;;;;;;;;;;;;;;-1.43;100.00;98712.00;1772087;80;20426;-72
2021/12/07 14:06:18;;;;;;;;;;;;;;;-1.43;100.00;98713.83;1775835;80;20145;-72
2021/12/07 14:08:48;;;;;;;;;;;;;;;-1.43;100.00;98710.69;1770940;80;20463;-71
2021/12/07 14:11:17;;;;;;;;;;;;;;;-1.44;100.00;98714.86;1774216;80;21071;-73
2021/12/07 14:13:49;;;;;;;;;;;;;;;-1.43;100.00;98718.59;1744980;82;20170;-71
2021/12/07 14:16:18;;;;;;;;;;;;;;;-1.44;100.00;98717.48;1745300;82;20436;-70
2021/12/07 14:18:45;;;;;;;;;;;;;;;-1.44;100.00;98736.72;1730413;80;20188;-70
2021/12/07 14:21:14;;;;;;;;;;;;;;;-1.49;100.00;98730.39;1775778;80;20144;-71
2021/12/07 14:23:46;;;;;;;;;;;;;;;-1.48;100.00;98739.42;1775779;80;21158;-73
2021/12/07 14:26:21;;;;;;;;;;;;;;;-1.51;100.00;98746.41;1775289;80;20426;-71
2021/12/07 14:29:02;;;;;;;;;;;;;;;-1.50;100.00;98746.70;1775880;80;20183;-70
2021/12/07 14:31:47;;;;;;;;;;;;;;;-1.52;100.00;98748.70;1775253;80;20858;-70
2021/12/07 14:34:22;;;;;;;;;;;;;;;-1.53;100.00;98740.01;1775767;80;20116;-68
2021/12/07 14:36:58;;;;;;;;;;;;;;;-1.56;100.00;98731.70;1775882;80;21525;-71
2021/12/07 14:39:34;;;;;;;;;;;;;;;-1.57;100.00;98740.59;1775532;80;20108;-69
2021/12/07 14:42:17;;;;;;;;;;;;;;;-1.57;100.00;98740.59;1775872;80;20132;-68
2021/12/07 14:44:50;;;;;;;;;;;;;;;-1.62;100.00;98742.48;1776641;80;20161;-69